createdAt,value
2023-01-21T00:02:13.122Z,14.73
2023-01-21T00:04:39.644Z,15.27
2023-01-21T00:07:06.409Z,14.73
2023-01-21T00:09:33.483Z,15.80
2023-01-21T00:12:02.817Z,15.67
2023-01-21T00:14:30.346Z,16.10
2023-01-21T00:16:58.072Z,15.27
2023-01-21T00:19:25.382Z,16.53
2023-01-21T00:21:52.190Z,15.17
2023-01-21T00:24:18.632Z,15.77
2023-01-21T00:26:45.044Z,15.90
2023-01-21T00:29:12.108Z,15.13
2023-01-21T00:31:38.483Z,14.67
2023-01-21T00:34:04.844Z,30.43
2023-01-21T00:36:31.237Z,19.33
2023-01-21T00:38:57.701Z,15.43
2023-01-21T00:41:24.624Z,16.43
2023-01-21T00:43:51.118Z,17.60
2023-01-21T00:46:17.528Z,16.73
2023-01-21T00:48:44.135Z,15.63
2023-01-21T00:51:10.602Z,16.57
2023-01-21T00:53:38.863Z,15.70
2023-01-21T00:56:07.510Z,16.47
2023-01-21T00:58:34.339Z,15.30
2023-01-21T01:01:06.467Z,15.13
2023-01-21T01:03:33.603Z,16.73
2023-01-21T01:06:09.444Z,19.97
2023-01-21T01:08:35.800Z,17.93
2023-01-21T01:11:02.392Z,17.63
2023-01-21T01:13:29.706Z,16.80
2023-01-21T01:15:57.780Z,15.80
2023-01-21T01:18:25.570Z,17.10
2023-01-21T01:20:52.328Z,18.53
2023-01-21T01:23:19.050Z,19.63
2023-01-21T01:25:55.151Z,20.70
2023-01-21T01:28:21.891Z,17.00
2023-01-21T01:30:48.330Z,17.53
2023-01-21T01:33:14.807Z,19.17
2023-01-21T01:35:41.906Z,17.03
2023-01-21T01:38:09.408Z,18.03
2023-01-21T01:40:37.398Z,19.13
2023-01-21T01:43:26.360Z,17.70
2023-01-21T01:45:53.817Z,16.23
2023-01-21T01:48:27.451Z,17.50
2023-01-21T01:50:56.960Z,16.77
2023-01-21T01:53:25.323Z,17.27
2023-01-21T01:55:51.874Z,17.27
2023-01-21T01:58:20.713Z,15.80
2023-01-21T02:00:47.071Z,18.63
2023-01-21T02:03:33.374Z,18.07
2023-01-21T02:05:59.728Z,18.17
2023-01-21T02:08:27.310Z,17.50
2023-01-21T02:10:56.083Z,17.20
2023-01-21T02:13:27.188Z,18.00
2023-01-21T02:16:12.099Z,14.90
2023-01-21T02:18:44.201Z,16.70
2023-01-21T02:21:39.115Z,16.83
2023-01-21T02:24:26.709Z,19.17
2023-01-21T02:27:05.059Z,17.13
2023-01-21T02:29:57.854Z,16.47
2023-01-21T02:32:36.410Z,16.53
2023-01-21T02:35:18.506Z,17.20
2023-01-21T02:38:15.579Z,17.67
2023-01-21T02:40:59.264Z,16.90
2023-01-21T02:43:39.768Z,18.33
2023-01-21T02:46:13.239Z,17.60
2023-01-21T02:48:48.371Z,15.33
2023-01-21T02:51:14.745Z,16.30
2023-01-21T02:53:41.251Z,17.13
2023-01-21T02:56:24.801Z,17.50
2023-01-21T02:58:56.012Z,16.70
2023-01-21T03:01:27.597Z,16.60
2023-01-21T03:04:29.860Z,17.40
2023-01-21T03:07:07.948Z,16.93
2023-01-21T03:09:35.229Z,18.00
2023-01-21T03:12:28.699Z,17.30
2023-01-21T03:15:25.873Z,17.30
2023-01-21T03:17:59.375Z,15.70
2023-01-21T03:20:40.269Z,17.23
2023-01-21T03:23:12.706Z,16.03
2023-01-21T03:25:40.875Z,17.40
2023-01-21T03:28:13.885Z,16.80
2023-01-21T03:30:45.069Z,16.20
2023-01-21T03:33:14.899Z,16.93
2023-01-21T03:35:47.149Z,14.93
2023-01-21T03:38:23.802Z,17.77
2023-01-21T03:41:16.366Z,16.63
2023-01-21T03:43:42.957Z,16.47
2023-01-21T03:46:24.862Z,16.13
2023-01-21T03:48:57.109Z,16.57
2023-01-21T03:51:31.499Z,16.77
2023-01-21T03:53:59.363Z,16.63
2023-01-21T03:56:26.633Z,17.03
2023-01-21T03:58:53.627Z,16.57
2023-01-21T04:01:20.307Z,16.70
2023-01-21T04:03:46.635Z,17.57
2023-01-21T04:06:18.454Z,16.80
2023-01-21T04:08:45.185Z,17.23
2023-01-21T04:11:11.917Z,17.10
2023-01-21T04:13:38.336Z,16.20
2023-01-21T04:16:05.793Z,17.90
2023-01-21T04:18:32.331Z,16.67
2023-01-21T04:20:59.211Z,17.13
2023-01-21T04:23:25.528Z,17.73
2023-01-21T04:25:52.679Z,17.63
2023-01-21T04:28:19.598Z,18.80
2023-01-21T04:30:48.918Z,17.20
2023-01-21T04:33:15.878Z,17.40
2023-01-21T04:35:42.328Z,17.17
2023-01-21T04:38:08.791Z,16.33
2023-01-21T04:40:35.315Z,17.53
2023-01-21T04:43:01.661Z,16.90
2023-01-21T04:45:28.002Z,17.93
2023-01-21T04:47:54.303Z,17.70
2023-01-21T04:50:20.631Z,18.03
2023-01-21T04:52:46.937Z,16.63
2023-01-21T04:55:13.534Z,17.37
2023-01-21T04:57:39.922Z,15.40
2023-01-21T05:00:07.535Z,17.20
2023-01-21T05:02:34.465Z,18.03
2023-01-21T05:05:00.915Z,18.03
2023-01-21T05:07:27.235Z,16.47
2023-01-21T05:09:53.643Z,20.37
2023-01-21T05:12:20.068Z,18.70
2023-01-21T05:14:46.419Z,18.57
2023-01-21T05:17:12.747Z,17.97
2023-01-21T05:19:39.051Z,16.70
2023-01-21T05:22:05.379Z,17.13
2023-01-21T05:24:31.697Z,16.50
2023-01-21T05:26:58.000Z,17.50
2023-01-21T05:29:24.326Z,17.37
2023-01-21T05:31:50.710Z,19.87
2023-01-21T05:34:17.051Z,19.17
2023-01-21T05:36:43.516Z,18.00
2023-01-21T05:39:09.835Z,17.20
2023-01-21T05:41:36.169Z,18.70
2023-01-21T05:44:02.547Z,18.30
2023-01-21T05:46:28.879Z,18.83
2023-01-21T05:48:55.272Z,17.73
2023-01-21T05:51:21.672Z,18.27
2023-01-21T05:53:48.031Z,18.23
2023-01-21T05:56:14.463Z,18.40
2023-01-21T05:58:40.831Z,19.20
2023-01-21T06:01:07.317Z,18.60
2023-01-21T06:03:33.691Z,18.30
2023-01-21T06:06:00.128Z,17.83
2023-01-21T06:08:26.464Z,17.57
2023-01-21T06:10:56.125Z,18.57
2023-01-21T06:13:23.215Z,17.80
2023-01-21T06:15:49.882Z,18.40
2023-01-21T06:18:16.310Z,16.83
2023-01-21T06:20:42.656Z,17.73
2023-01-21T06:23:08.998Z,17.93
2023-01-21T06:25:35.464Z,18.30
2023-01-21T06:28:01.915Z,18.73
2023-01-21T06:30:28.384Z,18.83
2023-01-21T06:32:54.875Z,19.57
2023-01-21T06:35:21.341Z,19.60
2023-01-21T06:37:47.658Z,20.60
2023-01-21T06:40:14.911Z,20.40
2023-01-21T06:42:41.379Z,20.70
2023-01-21T06:45:08.975Z,20.40
2023-01-21T06:47:35.345Z,20.50
2023-01-21T06:50:01.671Z,21.40
2023-01-21T06:52:28.075Z,20.83
2023-01-21T06:54:54.443Z,21.30
2023-01-21T06:57:20.783Z,20.17
2023-01-21T06:59:47.108Z,21.20
2023-01-21T07:02:13.431Z,20.57
2023-01-21T07:04:39.836Z,21.63
2023-01-21T07:07:06.234Z,22.67
2023-01-21T07:09:32.576Z,21.70
2023-01-21T07:11:58.929Z,21.93
2023-01-21T07:14:25.279Z,20.93
2023-01-21T07:16:51.596Z,21.10
2023-01-21T07:19:17.934Z,20.70
2023-01-21T07:21:44.356Z,20.97
2023-01-21T07:24:10.769Z,22.30
2023-01-21T07:26:38.030Z,21.83
2023-01-21T07:29:06.350Z,21.03
2023-01-21T07:31:33.246Z,22.93
2023-01-21T07:33:59.615Z,24.03
2023-01-21T07:36:26.784Z,22.70
2023-01-21T07:38:54.204Z,23.20
2023-01-21T07:41:20.576Z,21.30
2023-01-21T07:43:47.966Z,22.73
2023-01-21T07:46:22.269Z,21.30
2023-01-21T07:48:50.959Z,21.10
2023-01-21T07:51:18.416Z,21.93
2023-01-21T07:53:44.849Z,22.10
2023-01-21T07:56:11.508Z,23.10
2023-01-21T07:58:38.213Z,22.40
2023-01-21T08:01:05.502Z,22.93
2023-01-21T08:03:31.817Z,22.97
2023-01-21T08:05:58.120Z,23.43
2023-01-21T08:08:24.470Z,23.10
2023-01-21T08:10:55.074Z,23.07
2023-01-21T08:13:22.567Z,23.30
2023-01-21T08:15:54.249Z,22.40
2023-01-21T08:18:24.778Z,23.30
2023-01-21T08:20:55.742Z,23.30
2023-01-21T08:23:22.558Z,22.40
2023-01-21T08:25:49.212Z,24.07
2023-01-21T08:28:15.533Z,23.30
2023-01-21T08:30:41.889Z,22.63
2023-01-21T08:33:08.261Z,24.40
2023-01-21T08:35:34.827Z,23.07
2023-01-21T08:38:01.836Z,22.53
2023-01-21T08:40:28.396Z,22.97
2023-01-21T08:43:02.436Z,21.97
2023-01-21T08:45:29.155Z,21.73
2023-01-21T08:47:55.993Z,23.37
2023-01-21T08:50:22.760Z,24.50
2023-01-21T08:52:53.530Z,22.03
2023-01-21T08:55:21.317Z,23.80
2023-01-21T08:57:51.926Z,23.20
2023-01-21T09:00:19.406Z,22.27
2023-01-21T09:02:45.734Z,23.47
2023-01-21T09:05:12.086Z,21.50
2023-01-21T09:07:38.484Z,21.33
2023-01-21T09:10:05.826Z,21.23
2023-01-21T09:12:32.622Z,22.63
2023-01-21T09:14:59.009Z,21.53
2023-01-21T09:17:25.473Z,21.90
2023-01-21T09:19:52.834Z,22.10
2023-01-21T09:22:19.908Z,21.83
2023-01-21T09:24:46.212Z,22.10
2023-01-21T09:27:12.530Z,21.40
2023-01-21T09:29:38.895Z,22.87
2023-01-21T09:32:05.398Z,21.63
2023-01-21T09:34:34.001Z,20.87
2023-01-21T09:37:02.905Z,21.10
2023-01-21T09:39:29.239Z,19.73
2023-01-21T09:41:58.001Z,18.30
2023-01-21T09:44:35.507Z,16.67
2023-01-21T09:47:04.863Z,18.67
2023-01-21T09:49:38.944Z,16.40
2023-01-21T09:52:38.642Z,15.20
2023-01-21T09:55:09.214Z,15.77
2023-01-21T09:57:51.363Z,15.43
2023-01-21T10:00:35.636Z,13.70
2023-01-21T10:03:20.902Z,13.37
2023-01-21T10:05:53.279Z,14.30
2023-01-21T10:08:31.979Z,12.80
2023-01-21T10:11:23.273Z,12.20
2023-01-21T10:14:20.576Z,13.20
2023-01-21T10:17:11.463Z,13.23
2023-01-21T10:19:44.660Z,13.07
2023-01-21T10:22:18.577Z,11.50
2023-01-21T10:24:53.549Z,10.87
2023-01-21T10:27:22.103Z,9.90
2023-01-21T10:29:52.530Z,10.27
2023-01-21T10:32:24.435Z,10.93
2023-01-21T10:34:55.719Z,10.20
2023-01-21T10:37:40.984Z,10.50
2023-01-21T10:40:43.952Z,10.73
2023-01-21T10:43:27.331Z,10.90
2023-01-21T10:46:06.478Z,10.67
2023-01-21T10:48:39.545Z,9.50
2023-01-21T10:51:16.997Z,8.70
2023-01-21T10:53:59.820Z,8.03
2023-01-21T10:56:51.039Z,8.47
2023-01-21T10:59:22.041Z,7.60
2023-01-21T11:01:53.144Z,10.73
2023-01-21T11:04:21.902Z,8.23
2023-01-21T11:07:00.487Z,7.23
2023-01-21T11:09:30.020Z,8.03
2023-01-21T11:11:56.414Z,8.63
2023-01-21T11:14:25.502Z,8.53
2023-01-21T11:16:53.299Z,8.37
2023-01-21T11:19:25.805Z,8.90
2023-01-21T11:22:17.179Z,11.13
2023-01-21T11:24:46.183Z,8.33
2023-01-21T11:27:27.862Z,9.10
2023-01-21T11:29:54.193Z,9.90
2023-01-21T11:32:25.801Z,8.40
2023-01-21T11:35:16.663Z,10.07
2023-01-21T11:37:45.218Z,9.20
2023-01-21T11:40:20.882Z,9.10
2023-01-21T11:42:49.722Z,9.90
2023-01-21T11:45:32.680Z,8.40
2023-01-21T11:48:00.755Z,8.80
2023-01-21T11:50:28.653Z,8.70
2023-01-21T11:53:07.724Z,9.00
2023-01-21T11:55:40.682Z,9.00
2023-01-21T11:58:17.189Z,8.37
2023-01-21T12:00:47.868Z,8.27
2023-01-21T12:03:18.212Z,7.57
2023-01-21T12:05:48.758Z,8.40
2023-01-21T12:08:23.208Z,8.57
2023-01-21T12:10:52.740Z,10.37
2023-01-21T12:13:38.034Z,9.40
2023-01-21T12:16:44.344Z,9.30
2023-01-21T12:19:36.775Z,8.93
2023-01-21T12:22:30.152Z,8.67
2023-01-21T12:25:15.229Z,9.60
2023-01-21T12:28:05.593Z,10.10
2023-01-21T12:30:48.030Z,9.93
2023-01-21T12:33:21.853Z,10.00
2023-01-21T12:36:04.324Z,8.53
2023-01-21T12:38:40.835Z,10.47
2023-01-21T12:41:26.316Z,10.23
2023-01-21T12:43:59.359Z,9.93
2023-01-21T12:46:40.737Z,11.30
2023-01-21T12:49:46.781Z,11.50
2023-01-21T12:52:37.341Z,11.43
2023-01-21T12:55:18.871Z,11.50
2023-01-21T12:58:02.526Z,11.30
2023-01-21T13:00:32.911Z,10.90
2023-01-21T13:03:31.999Z,11.70
2023-01-21T13:06:33.527Z,10.93
2023-01-21T13:09:20.126Z,11.50
2023-01-21T13:11:58.519Z,12.20
2023-01-21T13:14:40.918Z,13.63
2023-01-21T13:17:17.313Z,11.57
2023-01-21T13:19:43.671Z,11.30
2023-01-21T13:22:17.445Z,11.50
2023-01-21T13:25:04.755Z,12.33
2023-01-21T13:27:47.261Z,11.60
2023-01-21T13:30:36.519Z,12.10
2023-01-21T13:33:27.559Z,13.60
2023-01-21T13:36:23.836Z,11.73
2023-01-21T13:39:02.831Z,12.37
2023-01-21T13:42:07.051Z,12.43
2023-01-21T13:44:46.996Z,11.90
2023-01-21T13:47:51.188Z,11.80
2023-01-21T13:50:46.319Z,11.77
2023-01-21T13:53:46.576Z,12.00
2023-01-21T13:56:24.079Z,12.30
2023-01-21T13:59:01.685Z,11.83
2023-01-21T14:01:35.823Z,11.67
2023-01-21T14:04:15.468Z,12.03
2023-01-21T14:06:47.568Z,11.63
2023-01-21T14:09:21.649Z,11.83
2023-01-21T14:11:55.611Z,11.77
2023-01-21T14:14:47.087Z,12.07
2023-01-21T14:17:32.279Z,11.30
2023-01-21T14:19:58.556Z,13.20
2023-01-21T14:22:47.223Z,11.90
2023-01-21T14:25:29.865Z,12.47
2023-01-21T14:28:12.552Z,12.63
2023-01-21T14:30:47.823Z,12.27
2023-01-21T14:33:24.095Z,10.80
2023-01-21T14:36:03.710Z,12.50
2023-01-21T14:38:44.254Z,11.73
2023-01-21T14:41:11.933Z,12.50
2023-01-21T14:43:38.661Z,11.33
2023-01-21T14:46:30.232Z,11.10
2023-01-21T14:49:07.843Z,9.93
2023-01-21T14:51:37.040Z,12.00
2023-01-21T14:54:16.953Z,12.67
2023-01-21T14:56:58.041Z,11.50
2023-01-21T14:59:34.119Z,11.60
2023-01-21T15:02:04.059Z,12.90
2023-01-21T15:04:39.977Z,10.97
2023-01-21T15:07:16.940Z,10.83
2023-01-21T15:09:58.596Z,12.20
2023-01-21T15:12:28.574Z,12.37
2023-01-21T15:14:59.072Z,11.40
2023-01-21T15:18:05.535Z,12.77
2023-01-21T15:20:57.957Z,10.53
2023-01-21T15:23:30.057Z,11.93
2023-01-21T15:26:30.428Z,12.60
2023-01-21T15:29:31.464Z,11.80
2023-01-21T15:32:32.003Z,12.30
2023-01-21T15:35:24.948Z,12.03
2023-01-21T15:37:53.573Z,11.23
2023-01-21T15:40:37.163Z,12.23
2023-01-21T15:43:14.429Z,12.47
2023-01-21T15:46:02.024Z,12.90
2023-01-21T15:48:53.384Z,11.10
2023-01-21T15:51:29.580Z,12.27
2023-01-21T15:54:12.731Z,12.80
2023-01-21T15:56:55.662Z,12.27
2023-01-21T16:00:06.759Z,10.97
2023-01-21T16:02:50.469Z,12.47
2023-01-21T16:05:33.557Z,13.17
2023-01-21T16:08:09.360Z,11.33
2023-01-21T16:10:52.100Z,11.80
2023-01-21T16:14:01.752Z,13.70
2023-01-21T16:16:33.731Z,12.20
2023-01-21T16:19:08.020Z,11.20
2023-01-21T16:21:36.703Z,13.03
2023-01-21T16:24:09.181Z,13.03
2023-01-21T16:26:35.686Z,13.90
2023-01-21T16:29:02.089Z,12.53
2023-01-21T16:31:28.549Z,13.83
2023-01-21T16:33:55.042Z,12.10
2023-01-21T16:36:21.499Z,13.17
2023-01-21T16:38:48.266Z,14.10
2023-01-21T16:41:14.613Z,12.77
2023-01-21T16:43:48.940Z,11.97
2023-01-21T16:46:17.899Z,13.47
2023-01-21T16:48:51.057Z,12.20
2023-01-21T16:51:22.065Z,12.30
2023-01-21T16:53:48.568Z,13.53
2023-01-21T16:56:29.806Z,13.93
2023-01-21T16:58:56.375Z,12.70
2023-01-21T17:01:26.321Z,12.63
2023-01-21T17:03:52.959Z,12.57
2023-01-21T17:06:23.958Z,13.27
2023-01-21T17:08:55.349Z,13.67
2023-01-21T17:11:22.594Z,13.20
2023-01-21T17:13:49.607Z,13.60
2023-01-21T17:16:26.390Z,12.63
2023-01-21T17:19:03.049Z,12.87
2023-01-21T17:21:35.653Z,13.57
2023-01-21T17:24:06.767Z,11.57
2023-01-21T17:26:45.569Z,12.80
2023-01-21T17:29:19.493Z,12.57
2023-01-21T17:31:58.060Z,12.50
2023-01-21T17:34:27.164Z,12.30
2023-01-21T17:36:54.894Z,12.17
2023-01-21T17:39:46.115Z,12.70
2023-01-21T17:42:16.681Z,11.80
2023-01-21T17:44:49.491Z,12.37
2023-01-21T17:47:26.352Z,11.63
2023-01-21T17:49:59.355Z,11.07
2023-01-21T17:52:26.558Z,11.93
2023-01-21T17:55:12.213Z,11.87
2023-01-21T17:57:38.625Z,10.47
2023-01-21T18:00:24.165Z,10.53
2023-01-21T18:02:50.553Z,10.67
2023-01-21T18:05:17.104Z,11.67
2023-01-21T18:07:43.580Z,11.67
2023-01-21T18:10:16.512Z,11.90
2023-01-21T18:12:42.926Z,12.93
2023-01-21T18:15:13.568Z,13.07
2023-01-21T18:17:44.186Z,11.60
2023-01-21T18:20:29.819Z,12.80
2023-01-21T18:22:57.991Z,11.77
2023-01-21T18:25:27.199Z,11.83
2023-01-21T18:27:57.320Z,12.63
2023-01-21T18:30:26.399Z,12.53
2023-01-21T18:32:54.025Z,11.20
2023-01-21T18:35:25.393Z,13.37
2023-01-21T18:37:51.722Z,11.90
2023-01-21T18:40:21.506Z,13.03
2023-01-21T18:42:55.195Z,12.50
2023-01-21T18:45:26.017Z,11.40
2023-01-21T18:47:52.733Z,13.90
2023-01-21T18:50:25.188Z,11.80
2023-01-21T18:52:51.874Z,11.77
2023-01-21T18:55:20.399Z,13.23
2023-01-21T18:57:49.305Z,11.90
2023-01-21T19:00:23.267Z,11.83
2023-01-21T19:02:53.368Z,12.27
2023-01-21T19:05:21.025Z,11.20
2023-01-21T19:07:47.711Z,10.73
2023-01-21T19:10:16.959Z,11.70
2023-01-21T19:12:44.423Z,12.00
2023-01-21T19:15:15.739Z,11.93
2023-01-21T19:17:42.204Z,11.80
2023-01-21T19:20:23.138Z,13.13
2023-01-21T19:22:51.232Z,11.57
2023-01-21T19:25:18.537Z,10.77
2023-01-21T19:27:53.301Z,11.30
2023-01-21T19:30:23.021Z,12.87
2023-01-21T19:32:50.913Z,12.30
2023-01-21T19:35:19.682Z,11.50
2023-01-21T19:37:50.464Z,10.87
2023-01-21T19:40:20.551Z,10.90
2023-01-21T19:42:48.037Z,11.77
2023-01-21T19:45:16.525Z,10.53
2023-01-21T19:47:45.645Z,12.10
2023-01-21T19:50:18.384Z,11.83
2023-01-21T19:52:46.116Z,12.27
2023-01-21T19:55:17.668Z,12.00
2023-01-21T19:57:46.347Z,11.43
2023-01-21T20:00:28.397Z,12.47
2023-01-21T20:02:54.847Z,11.17
2023-01-21T20:05:22.028Z,12.00
2023-01-21T20:07:50.245Z,11.20
2023-01-21T20:10:22.697Z,10.97
2023-01-21T20:12:49.089Z,11.77
2023-01-21T20:15:17.412Z,12.53
2023-01-21T20:17:46.694Z,12.77
2023-01-21T20:20:14.935Z,13.07
2023-01-21T20:22:41.252Z,12.27
2023-01-21T20:25:07.850Z,12.60
2023-01-21T20:27:34.181Z,12.27
2023-01-21T20:30:15.653Z,13.07
2023-01-21T20:32:43.282Z,11.53
2023-01-21T20:35:10.419Z,12.63
2023-01-21T20:37:37.118Z,11.60
2023-01-21T20:40:03.892Z,13.53
2023-01-21T20:44:57.463Z,13.60
2023-01-21T20:47:32.728Z,12.33
2023-01-21T20:50:26.639Z,11.40
2023-01-21T20:52:54.079Z,10.47
2023-01-21T20:55:21.689Z,12.10
2023-01-21T20:57:48.311Z,12.07
2023-01-21T21:00:26.691Z,13.20
2023-01-21T21:02:57.530Z,12.33
2023-01-21T21:05:25.775Z,13.13
2023-01-21T21:07:52.798Z,13.07
2023-01-21T21:10:26.397Z,12.57
2023-01-21T21:12:52.857Z,12.23
2023-01-21T21:15:20.255Z,12.40
2023-01-21T21:17:46.946Z,12.60
2023-01-21T21:20:22.797Z,12.40
2023-01-21T21:22:49.217Z,11.60
2023-01-21T21:25:21.449Z,12.50
2023-01-21T21:27:48.192Z,11.90
2023-01-21T21:30:20.432Z,12.47
2023-01-21T21:32:46.952Z,12.50
2023-01-21T21:35:29.579Z,13.20
2023-01-21T21:37:58.665Z,12.50
2023-01-21T21:40:26.839Z,12.50
2023-01-21T21:43:11.959Z,12.93
2023-01-21T21:45:40.734Z,12.60
2023-01-21T21:48:38.574Z,12.10
2023-01-21T21:51:06.410Z,12.00
2023-01-21T21:53:32.808Z,11.73
2023-01-21T21:56:11.066Z,12.90
2023-01-21T21:58:37.445Z,11.70
2023-01-21T22:01:15.828Z,11.83
2023-01-21T22:03:42.738Z,12.63
2023-01-21T22:06:10.257Z,11.67
2023-01-21T22:08:40.113Z,12.10
2023-01-21T22:11:09.148Z,11.83
2023-01-21T22:13:38.179Z,12.87
2023-01-21T22:16:04.882Z,12.03
2023-01-21T22:18:31.989Z,12.03
2023-01-21T22:21:11.007Z,11.30
2023-01-21T22:23:37.828Z,12.00
2023-01-21T22:26:06.635Z,12.07
2023-01-21T22:28:35.256Z,11.83
2023-01-21T22:31:06.701Z,11.83
2023-01-21T22:33:34.075Z,11.90
2023-01-21T22:36:05.141Z,11.50
2023-01-21T22:38:33.021Z,10.73
2023-01-21T22:40:59.382Z,11.87
2023-01-21T22:43:26.849Z,10.67
2023-01-21T22:45:55.420Z,10.43
2023-01-21T22:48:22.357Z,9.00
2023-01-21T22:50:54.411Z,12.43
2023-01-21T22:53:21.326Z,10.93
2023-01-21T22:56:02.444Z,10.27
2023-01-21T22:58:30.252Z,10.40
2023-01-21T23:00:57.599Z,10.37
2023-01-21T23:03:24.549Z,10.30
2023-01-21T23:05:51.324Z,11.73
2023-01-21T23:08:18.749Z,11.10
2023-01-21T23:10:47.009Z,11.57
2023-01-21T23:13:14.456Z,12.60
2023-01-21T23:15:45.685Z,12.70
2023-01-21T23:18:13.968Z,12.67
2023-01-21T23:20:41.999Z,12.13
2023-01-21T23:23:10.061Z,12.20
2023-01-21T23:25:40.937Z,11.97
2023-01-21T23:28:07.303Z,11.83
2023-01-21T23:30:34.214Z,12.70
2023-01-21T23:33:00.791Z,12.90
2023-01-21T23:35:28.019Z,12.50
2023-01-21T23:37:54.350Z,13.80
2023-01-21T23:40:20.717Z,13.27
2023-01-21T23:42:48.192Z,13.60
2023-01-21T23:45:14.515Z,13.30
2023-01-21T23:47:41.004Z,12.67
2023-01-21T23:50:08.560Z,12.17
2023-01-21T23:52:36.628Z,11.10
2023-01-21T23:55:04.490Z,13.17
2023-01-21T23:57:31.092Z,12.07
2023-01-21T23:59:57.490Z,12.60
